createdAt,value
2023-04-03T00:00:15.617Z,578.00
2023-04-03T00:01:15.597Z,571.00
2023-04-03T00:02:15.787Z,570.00
2023-04-03T00:03:15.714Z,567.00
2023-04-03T00:04:15.736Z,571.00
2023-04-03T00:05:15.735Z,571.00
2023-04-03T00:06:15.728Z,577.00
2023-04-03T00:07:15.808Z,568.00
2023-04-03T00:08:15.883Z,575.00
2023-04-03T00:09:15.855Z,568.00
2023-04-03T00:10:15.939Z,573.00
2023-04-03T00:11:15.948Z,573.00
2023-04-03T00:12:15.986Z,572.00
2023-04-03T00:13:16.051Z,572.00
2023-04-03T00:14:16.012Z,570.00
2023-04-03T00:15:16.073Z,569.00
2023-04-03T00:16:16.183Z,565.00
2023-04-03T00:17:16.138Z,564.00
2023-04-03T00:18:16.142Z,571.00
2023-04-03T00:19:16.440Z,574.00
2023-04-03T00:20:16.228Z,567.00
2023-04-03T00:21:16.304Z,569.00
2023-04-03T00:22:16.314Z,570.00
2023-04-03T00:23:16.362Z,568.00
2023-04-03T00:24:16.417Z,572.00
2023-04-03T00:25:16.437Z,573.00
2023-04-03T00:26:16.492Z,568.00
2023-04-03T00:27:16.552Z,564.00
2023-04-03T00:28:16.568Z,567.00
2023-04-03T00:29:16.606Z,566.00
2023-04-03T00:30:16.649Z,565.00
2023-04-03T00:31:16.701Z,565.00
2023-04-03T00:32:16.730Z,571.00
2023-04-03T00:33:16.723Z,563.00
2023-04-03T00:34:16.772Z,573.00
2023-04-03T00:35:16.831Z,568.00
2023-04-03T00:36:16.904Z,568.00
2023-04-03T00:37:17.078Z,566.00
2023-04-03T00:38:16.977Z,571.00
2023-04-03T00:39:17.022Z,566.00
2023-04-03T00:40:17.020Z,566.00
2023-04-03T00:41:17.136Z,569.00
2023-04-03T00:42:17.178Z,566.00
2023-04-03T00:43:17.178Z,566.00
2023-04-03T00:44:17.238Z,568.00
2023-04-03T00:45:17.244Z,568.00
2023-04-03T00:46:17.333Z,568.00
2023-04-03T00:47:17.365Z,569.00
2023-04-03T00:48:17.423Z,565.00
2023-04-03T00:49:17.445Z,568.00
2023-04-03T00:50:17.543Z,562.00
2023-04-03T00:51:17.574Z,566.00
2023-04-03T00:52:17.612Z,567.00
2023-04-03T00:53:17.655Z,568.00
2023-04-03T00:54:17.693Z,567.00
2023-04-03T00:55:17.766Z,569.00
2023-04-03T00:56:17.792Z,563.00
2023-04-03T00:57:17.882Z,570.00
2023-04-03T00:58:17.880Z,565.00
2023-04-03T00:59:17.957Z,566.00
2023-04-03T01:00:18.012Z,570.00
2023-04-03T01:01:18.112Z,565.00
2023-04-03T01:02:18.059Z,564.00
2023-04-03T01:03:18.129Z,564.00
2023-04-03T01:04:18.205Z,563.00
2023-04-03T01:05:18.216Z,566.00
2023-04-03T01:06:18.259Z,560.00
2023-04-03T01:07:18.329Z,565.00
2023-04-03T01:08:18.333Z,560.00
2023-04-03T01:09:18.408Z,566.00
2023-04-03T01:10:18.444Z,564.00
2023-04-03T01:11:18.455Z,559.00
2023-04-03T01:12:18.529Z,562.00
2023-04-03T01:13:18.676Z,570.00
2023-04-03T01:14:18.638Z,566.00
2023-04-03T01:15:18.659Z,561.00
2023-04-03T01:16:18.750Z,564.00
2023-04-03T01:17:18.740Z,553.00
2023-04-03T01:18:18.782Z,563.00
2023-04-03T01:19:18.852Z,565.00
2023-04-03T01:20:18.852Z,559.00
2023-04-03T01:21:18.890Z,557.00
2023-04-03T01:22:18.991Z,563.00
2023-04-03T01:23:18.976Z,566.00
2023-04-03T01:24:19.064Z,565.00
2023-04-03T01:25:19.068Z,560.00
2023-04-03T01:26:19.108Z,556.00
2023-04-03T01:27:19.180Z,567.00
2023-04-03T01:28:19.236Z,562.00
2023-04-03T01:29:19.263Z,559.00
2023-04-03T01:30:19.383Z,563.00
2023-04-03T01:31:19.376Z,561.00
2023-04-03T01:32:19.411Z,558.00
2023-04-03T01:33:19.452Z,562.00
2023-04-03T01:34:19.474Z,561.00
2023-04-03T01:35:19.538Z,560.00
2023-04-03T01:36:19.620Z,567.00
2023-04-03T01:37:19.635Z,563.00
2023-04-03T01:38:19.670Z,563.00
2023-04-03T01:39:19.749Z,560.00
2023-04-03T01:40:19.809Z,564.00
2023-04-03T01:41:19.904Z,559.00
2023-04-03T01:42:19.941Z,557.00
2023-04-03T01:43:19.943Z,563.00
2023-04-03T01:44:20.004Z,563.00
2023-04-03T01:45:20.076Z,559.00
2023-04-03T01:46:20.120Z,559.00
2023-04-03T01:47:20.256Z,562.00
2023-04-03T01:48:20.287Z,566.00
2023-04-03T01:49:20.293Z,565.00
2023-04-03T01:50:20.350Z,563.00
2023-04-03T01:51:20.411Z,561.00
2023-04-03T01:52:20.451Z,557.00
2023-04-03T01:53:20.520Z,557.00
2023-04-03T01:54:20.584Z,563.00
2023-04-03T01:55:20.635Z,563.00
2023-04-03T01:56:20.676Z,562.00
2023-04-03T01:57:20.732Z,560.00
2023-04-03T01:58:20.777Z,560.00
2023-04-03T01:59:20.849Z,562.00
2023-04-03T02:00:20.875Z,561.00
2023-04-03T02:01:21.039Z,560.00
2023-04-03T02:02:20.989Z,563.00
2023-04-03T02:03:21.058Z,564.00
2023-04-03T02:04:21.138Z,557.00
2023-04-03T02:05:21.152Z,564.00
2023-04-03T02:06:21.189Z,562.00
2023-04-03T02:07:21.220Z,555.00
2023-04-03T02:08:21.749Z,557.00
2023-04-03T02:09:21.341Z,562.00
2023-04-03T02:10:21.388Z,559.00
2023-04-03T02:11:21.458Z,558.00
2023-04-03T02:12:21.534Z,558.00
2023-04-03T02:13:21.538Z,558.00
2023-04-03T02:14:21.624Z,559.00
2023-04-03T02:15:21.632Z,560.00
2023-04-03T02:16:21.708Z,553.00
2023-04-03T02:17:21.824Z,560.00
2023-04-03T02:18:21.829Z,557.00
2023-04-03T02:19:21.861Z,561.00
2023-04-03T02:20:21.951Z,557.00
2023-04-03T02:21:21.987Z,562.00
2023-04-03T02:22:21.994Z,557.00
2023-04-03T02:23:22.092Z,560.00
2023-04-03T02:24:22.132Z,559.00
2023-04-03T02:25:22.199Z,556.00
2023-04-03T02:26:22.291Z,559.00
2023-04-03T02:27:22.355Z,559.00
2023-04-03T02:28:22.367Z,560.00
2023-04-03T02:29:22.429Z,558.00
2023-04-03T02:30:22.516Z,561.00
2023-04-03T02:31:22.551Z,563.00
2023-04-03T02:32:22.614Z,563.00
2023-04-03T02:33:22.651Z,564.00
2023-04-03T02:34:22.733Z,553.00
2023-04-03T02:35:22.809Z,563.00
2023-04-03T02:36:22.853Z,562.00
2023-04-03T02:37:22.924Z,562.00
2023-04-03T02:38:22.965Z,557.00
2023-04-03T02:39:23.041Z,559.00
2023-04-03T02:40:23.115Z,555.00
2023-04-03T02:41:23.230Z,559.00
2023-04-03T02:42:23.198Z,562.00
2023-04-03T02:43:23.379Z,561.00
2023-04-03T02:44:23.354Z,558.00
2023-04-03T02:45:23.428Z,554.00
2023-04-03T02:46:23.587Z,558.00
2023-04-03T02:47:23.541Z,556.00
2023-04-03T02:48:23.612Z,556.00
2023-04-03T02:49:23.690Z,555.00
2023-04-03T02:50:23.742Z,559.00
2023-04-03T02:51:23.788Z,560.00
2023-04-03T02:52:23.811Z,559.00
2023-04-03T02:53:23.908Z,558.00
2023-04-03T02:54:24.013Z,560.00
2023-04-03T02:55:24.025Z,545.00
2023-04-03T02:56:24.084Z,559.00
2023-04-03T02:57:24.179Z,558.00
2023-04-03T02:58:24.236Z,557.00
2023-04-03T02:59:24.250Z,561.00
2023-04-03T03:00:24.319Z,556.00
2023-04-03T03:01:24.470Z,557.00
2023-04-03T03:02:24.505Z,559.00
2023-04-03T03:03:24.533Z,562.00
2023-04-03T03:04:24.587Z,560.00
2023-04-03T03:05:24.641Z,560.00
2023-04-03T03:06:24.647Z,559.00
2023-04-03T03:07:24.790Z,555.00
2023-04-03T03:08:24.789Z,553.00
2023-04-03T03:09:24.867Z,560.00
2023-04-03T03:10:24.913Z,556.00
2023-04-03T03:11:24.960Z,556.00
2023-04-03T03:12:25.030Z,559.00
2023-04-03T03:13:25.059Z,553.00
2023-04-03T03:14:25.091Z,557.00
2023-04-03T03:15:25.191Z,558.00
2023-04-03T03:16:25.326Z,560.00
2023-04-03T03:17:25.336Z,559.00
2023-04-03T03:18:25.372Z,554.00
2023-04-03T03:19:25.411Z,551.00
2023-04-03T03:20:25.432Z,555.00
2023-04-03T03:21:25.495Z,554.00
2023-04-03T03:22:25.533Z,550.00
2023-04-03T03:23:25.572Z,555.00
2023-04-03T03:24:25.620Z,555.00
2023-04-03T03:25:25.682Z,555.00
2023-04-03T03:26:25.744Z,556.00
2023-04-03T03:27:25.771Z,557.00
2023-04-03T03:28:25.808Z,554.00
2023-04-03T03:29:25.848Z,554.00
2023-04-03T03:30:25.909Z,554.00
2023-04-03T03:31:25.986Z,556.00
2023-04-03T03:32:26.084Z,555.00
2023-04-03T03:33:26.096Z,558.00
2023-04-03T03:34:26.102Z,554.00
2023-04-03T03:35:26.166Z,556.00
2023-04-03T03:36:26.249Z,552.00
2023-04-03T03:37:26.205Z,556.00
2023-04-03T03:38:26.278Z,557.00
2023-04-03T03:39:26.249Z,546.00
2023-04-03T03:40:26.293Z,552.00
2023-04-03T03:41:26.378Z,552.00
2023-04-03T03:42:26.451Z,552.00
2023-04-03T03:43:26.496Z,555.00
2023-04-03T03:44:26.531Z,548.00
2023-04-03T03:45:26.613Z,553.00
2023-04-03T03:46:26.738Z,554.00
2023-04-03T03:47:26.771Z,551.00
2023-04-03T03:48:26.766Z,548.00
2023-04-03T03:49:26.877Z,550.00
2023-04-03T03:50:26.909Z,552.00
2023-04-03T03:51:26.944Z,548.00
2023-04-03T03:52:27.041Z,554.00
2023-04-03T03:53:27.080Z,551.00
2023-04-03T03:54:27.198Z,552.00
2023-04-03T03:55:27.270Z,552.00
2023-04-03T03:56:27.298Z,551.00
2023-04-03T03:57:27.372Z,548.00
2023-04-03T03:58:27.429Z,550.00
2023-04-03T03:59:27.490Z,546.00
2023-04-03T04:00:27.538Z,549.00
2023-04-03T04:01:27.605Z,549.00
2023-04-03T04:02:27.700Z,548.00
2023-04-03T04:03:27.781Z,538.00
2023-04-03T04:04:27.833Z,515.00
2023-04-03T04:05:27.839Z,505.00
2023-04-03T04:06:27.880Z,498.00
2023-04-03T04:07:27.895Z,500.00
2023-04-03T04:08:27.906Z,501.00
2023-04-03T04:09:27.898Z,500.00
2023-04-03T04:10:27.936Z,500.00
2023-04-03T04:11:27.991Z,500.00
2023-04-03T04:12:27.986Z,500.00
2023-04-03T04:13:27.961Z,500.00
2023-04-03T04:14:27.961Z,497.00
2023-04-03T04:15:28.074Z,501.00
2023-04-03T04:16:28.154Z,498.00
2023-04-03T04:17:27.999Z,498.00
2023-04-03T04:18:28.029Z,502.00
2023-04-03T04:19:28.074Z,501.00
2023-04-03T04:20:28.086Z,507.00
2023-04-03T04:21:28.112Z,501.00
2023-04-03T04:22:28.162Z,506.00
2023-04-03T04:23:28.137Z,500.00
2023-04-03T04:24:28.182Z,500.00
2023-04-03T04:25:28.208Z,501.00
2023-04-03T04:26:28.296Z,502.00
2023-04-03T04:27:28.296Z,501.00
2023-04-03T04:28:28.348Z,500.00
2023-04-03T04:29:28.301Z,506.00
2023-04-03T04:30:28.425Z,502.00
2023-04-03T04:31:28.478Z,509.00
2023-04-03T04:32:28.519Z,511.00
2023-04-03T04:33:28.477Z,512.00
2023-04-03T04:34:28.518Z,520.00
2023-04-03T04:35:28.607Z,516.00
2023-04-03T04:36:28.671Z,519.00
2023-04-03T04:37:28.574Z,526.00
2023-04-03T04:38:28.575Z,520.00
2023-04-03T04:39:28.584Z,545.00
2023-04-03T04:40:28.595Z,535.00
2023-04-03T04:41:28.626Z,546.00
2023-04-03T04:42:28.637Z,558.00
2023-04-03T04:43:28.644Z,552.00
2023-04-03T04:44:28.667Z,552.00
2023-04-03T04:45:28.652Z,557.00
2023-04-03T04:46:28.712Z,559.00
2023-04-03T04:47:28.687Z,561.00
2023-04-03T04:48:29.583Z,570.00
2023-04-03T04:49:28.691Z,571.00
2023-04-03T04:50:28.691Z,575.00
2023-04-03T04:51:32.852Z,580.00
2023-04-03T04:52:29.694Z,580.00
2023-04-03T04:53:28.678Z,581.00
2023-04-03T04:54:28.677Z,585.00
2023-04-03T04:55:28.690Z,589.00
2023-04-03T04:56:28.623Z,596.00
2023-04-03T04:57:28.705Z,595.00
2023-04-03T04:58:28.657Z,600.00
2023-04-03T04:59:28.612Z,605.00
2023-04-03T05:00:28.623Z,606.00
2023-04-03T05:01:28.697Z,609.00
2023-04-03T05:02:28.636Z,611.00
2023-04-03T05:03:28.582Z,614.00
2023-04-03T05:04:28.619Z,622.00
2023-04-03T05:05:28.604Z,626.00
2023-04-03T05:06:28.597Z,628.00
2023-04-03T05:07:28.578Z,633.00
2023-04-03T05:08:28.568Z,637.00
2023-04-03T05:09:28.571Z,639.00
2023-04-03T05:10:28.596Z,640.00
2023-04-03T05:11:28.535Z,648.00
2023-04-03T05:12:28.540Z,648.00
2023-04-03T05:13:28.573Z,654.00
2023-04-03T05:14:28.506Z,661.00
2023-04-03T05:15:28.539Z,665.00
2023-04-03T05:16:28.652Z,663.00
2023-04-03T05:17:28.596Z,665.00
2023-04-03T05:18:28.480Z,671.00
2023-04-03T05:19:28.491Z,684.00
2023-04-03T05:20:28.511Z,682.00
2023-04-03T05:21:28.451Z,688.00
2023-04-03T05:22:28.456Z,704.00
2023-04-03T05:23:28.478Z,702.00
2023-04-03T05:24:28.440Z,707.00
2023-04-03T05:25:28.436Z,717.00
2023-04-03T05:26:28.426Z,731.00
2023-04-03T05:27:28.427Z,730.00
2023-04-03T05:28:28.461Z,730.00
2023-04-03T05:29:28.412Z,731.00
2023-04-03T05:30:28.416Z,742.00
2023-04-03T05:31:28.431Z,744.00
2023-04-03T05:32:28.540Z,744.00
2023-04-03T05:33:28.371Z,744.00
2023-04-03T05:34:28.384Z,737.00
2023-04-03T05:35:28.390Z,762.00
2023-04-03T05:36:28.361Z,759.00
2023-04-03T05:37:28.355Z,778.00
2023-04-03T05:38:28.369Z,770.00
2023-04-03T05:39:28.372Z,769.00
2023-04-03T05:40:28.321Z,772.00
2023-04-03T05:41:28.343Z,787.00
2023-04-03T05:42:28.338Z,799.00
2023-04-03T05:43:28.338Z,791.00
2023-04-03T05:44:28.300Z,807.00
2023-04-03T05:45:28.341Z,798.00
2023-04-03T05:46:28.303Z,802.00
2023-04-03T05:47:28.320Z,812.00
2023-04-03T05:48:28.250Z,807.00
2023-04-03T05:49:28.283Z,809.00
2023-04-03T05:50:28.302Z,819.00
2023-04-03T05:51:28.297Z,825.00
2023-04-03T05:52:28.314Z,812.00
2023-04-03T05:53:28.272Z,823.00
2023-04-03T05:54:28.271Z,829.00
2023-04-03T05:55:28.299Z,840.00
2023-04-03T05:56:28.218Z,831.00
2023-04-03T05:57:28.310Z,843.00
2023-04-03T05:58:28.250Z,847.00
2023-04-03T05:59:28.247Z,846.00
2023-04-03T06:00:28.254Z,849.00
2023-04-03T06:01:28.227Z,841.00
2023-04-03T06:02:28.240Z,847.00
2023-04-03T06:03:28.348Z,845.00
2023-04-03T06:04:28.347Z,861.00
2023-04-03T06:05:28.275Z,854.00
2023-04-03T06:06:28.291Z,852.00
2023-04-03T06:07:28.303Z,851.00
2023-04-03T06:08:28.303Z,858.00
2023-04-03T06:09:28.316Z,859.00
2023-04-03T06:10:28.317Z,860.00
2023-04-03T06:11:28.327Z,858.00
2023-04-03T06:12:28.335Z,851.00
2023-04-03T06:13:28.357Z,859.00
2023-04-03T06:14:28.412Z,883.00
2023-04-03T06:15:28.410Z,870.00
2023-04-03T06:16:28.505Z,881.00
2023-04-03T06:17:28.470Z,866.00
2023-04-03T06:18:28.471Z,869.00
2023-04-03T06:19:28.546Z,884.00
2023-04-03T06:20:28.613Z,879.00
2023-04-03T06:21:28.554Z,865.00
2023-04-03T06:22:28.643Z,878.00
2023-04-03T06:23:28.661Z,885.00
2023-04-03T06:24:28.710Z,888.00
2023-04-03T06:25:28.799Z,884.00
2023-04-03T06:26:28.842Z,879.00
2023-04-03T06:27:28.897Z,888.00
2023-04-03T06:28:28.917Z,882.00
2023-04-03T06:29:28.948Z,896.00
2023-04-03T06:30:29.021Z,891.00
2023-04-03T06:31:29.113Z,891.00
2023-04-03T06:32:29.114Z,894.00
2023-04-03T06:33:29.185Z,898.00
2023-04-03T06:34:29.265Z,885.00
2023-04-03T06:35:29.338Z,894.00
2023-04-03T06:36:29.326Z,898.00
2023-04-03T06:37:29.691Z,900.00
2023-04-03T06:38:29.493Z,906.00
2023-04-03T06:39:29.540Z,890.00
2023-04-03T06:40:29.568Z,892.00
2023-04-03T06:41:29.623Z,910.00
2023-04-03T06:42:29.648Z,894.00
2023-04-03T06:43:29.647Z,894.00
2023-04-03T06:44:29.747Z,914.00
2023-04-03T06:45:29.742Z,909.00
2023-04-03T06:46:30.213Z,913.00
2023-04-03T06:47:29.828Z,899.00
2023-04-03T06:48:29.914Z,905.00
2023-04-03T06:49:29.905Z,921.00
2023-04-03T06:50:29.987Z,918.00
2023-04-03T06:51:30.065Z,909.00
2023-04-03T06:52:30.036Z,912.00
2023-04-03T06:53:30.083Z,915.00
2023-04-03T06:54:30.111Z,919.00
2023-04-03T06:55:30.170Z,917.00
2023-04-03T06:56:30.228Z,916.00
2023-04-03T06:57:30.262Z,911.00
2023-04-03T06:58:30.271Z,906.00
2023-04-03T06:59:30.311Z,926.00
2023-04-03T07:00:30.397Z,913.00
2023-04-03T07:01:30.474Z,921.00
2023-04-03T07:02:30.509Z,921.00
2023-04-03T07:03:30.548Z,912.00
2023-04-03T07:04:30.617Z,931.00
2023-04-03T07:05:30.651Z,912.00
2023-04-03T07:06:30.847Z,924.00
2023-04-03T07:07:30.756Z,926.00
2023-04-03T07:08:30.871Z,924.00
2023-04-03T07:09:30.931Z,920.00
2023-04-03T07:10:30.932Z,922.00
2023-04-03T07:11:31.032Z,928.00
2023-04-03T07:12:31.101Z,920.00
2023-04-03T07:13:31.117Z,920.00
2023-04-03T07:14:31.170Z,932.00
2023-04-03T07:15:31.279Z,919.00
2023-04-03T07:16:31.369Z,926.00
2023-04-03T07:17:31.356Z,922.00
2023-04-03T07:18:31.367Z,924.00
2023-04-03T07:19:31.426Z,920.00
2023-04-03T07:20:31.520Z,936.00
2023-04-03T07:21:31.567Z,934.00
2023-04-03T07:22:31.634Z,934.00
2023-04-03T07:23:31.691Z,942.00
2023-04-03T07:24:31.810Z,934.00
2023-04-03T07:25:31.780Z,915.00
2023-04-03T07:26:31.865Z,928.00
2023-04-03T07:27:31.918Z,936.00
2023-04-03T07:28:31.942Z,933.00
2023-04-03T07:29:31.986Z,912.00
2023-04-03T07:30:32.049Z,935.00
2023-04-03T07:31:32.151Z,936.00
2023-04-03T07:32:32.199Z,936.00
2023-04-03T07:33:32.246Z,923.00
2023-04-03T07:34:32.281Z,937.00
2023-04-03T07:35:32.397Z,935.00
2023-04-03T07:36:32.413Z,939.00
2023-04-03T07:37:32.486Z,937.00
2023-04-03T07:38:32.549Z,937.00
2023-04-03T07:39:32.628Z,935.00
2023-04-03T07:40:32.689Z,940.00
2023-04-03T07:41:32.737Z,939.00
2023-04-03T07:42:32.762Z,933.00
2023-04-03T07:43:32.806Z,924.00
2023-04-03T07:44:32.870Z,927.00
2023-04-03T07:45:32.937Z,931.00
2023-04-03T07:46:32.971Z,939.00
2023-04-03T07:47:33.169Z,937.00
2023-04-03T07:48:33.095Z,944.00
2023-04-03T07:49:33.166Z,926.00
2023-04-03T07:50:33.275Z,933.00
2023-04-03T07:51:33.245Z,939.00
2023-04-03T07:52:33.320Z,945.00
2023-04-03T07:53:33.325Z,940.00
2023-04-03T07:54:33.391Z,942.00
2023-04-03T07:55:34.848Z,932.00
2023-04-03T07:56:33.495Z,937.00
2023-04-03T07:57:33.660Z,946.00
2023-04-03T07:58:33.576Z,941.00
2023-04-03T07:59:33.627Z,935.00
2023-04-03T08:00:33.656Z,928.00
2023-04-03T08:01:33.780Z,941.00
2023-04-03T08:02:33.742Z,943.00
2023-04-03T08:03:33.888Z,940.00
2023-04-03T08:04:33.976Z,931.00
2023-04-03T08:05:33.928Z,938.00
2023-04-03T08:06:45.601Z,954.00
2023-04-03T08:07:34.951Z,954.00
2023-04-03T08:08:33.920Z,949.00
2023-04-03T08:09:33.900Z,955.00
2023-04-03T08:10:33.915Z,938.00
2023-04-03T08:11:33.922Z,947.00
2023-04-03T08:12:33.879Z,956.00
2023-04-03T08:13:33.914Z,951.00
2023-04-03T08:14:33.976Z,946.00
2023-04-03T08:15:33.843Z,946.00
2023-04-03T08:16:33.951Z,955.00
2023-04-03T08:17:33.904Z,954.00
2023-04-03T08:18:33.854Z,953.00
2023-04-03T08:19:33.846Z,938.00
2023-04-03T08:20:33.900Z,949.00
2023-04-03T08:21:33.930Z,954.00
2023-04-03T08:22:33.974Z,956.00
2023-04-03T08:23:34.013Z,971.00
2023-04-03T08:24:34.064Z,952.00
2023-04-03T08:25:34.059Z,958.00
2023-04-03T08:26:34.120Z,952.00
2023-04-03T08:27:34.177Z,950.00
2023-04-03T08:28:34.152Z,956.00
2023-04-03T08:29:34.762Z,956.00
2023-04-03T08:30:34.231Z,949.00
2023-04-03T08:31:34.232Z,951.00
2023-04-03T08:32:34.308Z,950.00
2023-04-03T08:33:34.305Z,960.00
2023-04-03T08:34:34.330Z,958.00
2023-04-03T08:35:35.790Z,962.00
2023-04-03T08:36:34.475Z,950.00
2023-04-03T08:37:34.485Z,958.00
2023-04-03T08:38:34.537Z,960.00
2023-04-03T08:39:34.538Z,959.00
2023-04-03T08:40:34.571Z,960.00
2023-04-03T08:41:34.600Z,967.00
2023-04-03T08:42:34.729Z,971.00
2023-04-03T08:43:34.642Z,959.00
2023-04-03T08:44:34.636Z,964.00
2023-04-03T08:45:34.657Z,959.00
2023-04-03T08:46:34.712Z,963.00
2023-04-03T08:47:34.679Z,969.00
2023-04-03T08:48:34.687Z,973.00
2023-04-03T08:49:34.695Z,965.00
2023-04-03T08:50:36.106Z,968.00
2023-04-03T08:51:34.764Z,967.00
2023-04-03T08:52:34.688Z,962.00
2023-04-03T08:53:34.749Z,963.00
2023-04-03T08:54:35.452Z,950.00
2023-04-03T08:55:34.683Z,955.00
2023-04-03T08:56:34.718Z,964.00
2023-04-03T08:57:34.759Z,963.00
2023-04-03T08:58:34.727Z,952.00
2023-04-03T08:59:34.677Z,951.00
2023-04-03T09:00:34.677Z,938.00
2023-04-03T09:01:37.499Z,959.00
2023-04-03T09:02:34.754Z,955.00
2023-04-03T09:03:34.740Z,963.00
2023-04-03T09:04:34.699Z,985.00
2023-04-03T09:05:34.682Z,963.00
2023-04-03T09:06:34.690Z,946.00
2023-04-03T09:07:34.818Z,959.00
2023-04-03T09:08:34.667Z,952.00
2023-04-03T09:09:34.684Z,963.00
2023-04-03T09:10:34.648Z,961.00
2023-04-03T09:11:34.624Z,952.00
2023-04-03T09:12:34.649Z,966.00
2023-04-03T09:13:34.626Z,972.00
2023-04-03T09:14:34.598Z,974.00
2023-04-03T09:15:39.023Z,991.00
2023-04-03T09:16:35.588Z,991.00
2023-04-03T09:17:34.634Z,991.00
2023-04-03T09:18:34.614Z,981.00
2023-04-03T09:19:34.589Z,970.00
2023-04-03T09:20:34.575Z,965.00
2023-04-03T09:21:34.577Z,966.00
2023-04-03T09:22:36.685Z,972.00
2023-04-03T09:23:35.593Z,973.00
2023-04-03T09:24:34.539Z,974.00
2023-04-03T09:25:34.543Z,972.00
2023-04-03T09:26:34.562Z,965.00
2023-04-03T09:27:34.590Z,986.00
2023-04-03T09:28:42.548Z,968.00
2023-04-03T09:29:35.494Z,970.00
2023-04-03T09:30:34.538Z,970.00
2023-04-03T09:31:34.523Z,969.00
2023-04-03T09:32:34.510Z,966.00
2023-04-03T09:33:34.499Z,974.00
2023-04-03T09:34:34.493Z,952.00
2023-04-03T09:35:44.697Z,954.00
2023-04-03T09:36:35.518Z,955.00
2023-04-03T09:37:34.452Z,957.00
2023-04-03T09:38:34.439Z,962.00
2023-04-03T09:39:34.524Z,957.00
2023-04-03T09:40:34.436Z,961.00
2023-04-03T09:41:34.440Z,957.00
2023-04-03T09:42:34.428Z,967.00
2023-04-03T09:43:34.429Z,960.00
2023-04-03T09:44:34.431Z,957.00
2023-04-03T09:45:34.405Z,954.00
2023-04-03T09:46:34.439Z,952.00
2023-04-03T09:47:34.459Z,959.00
2023-04-03T09:48:34.392Z,959.00
2023-04-03T09:49:34.418Z,944.00
2023-04-03T09:50:34.445Z,966.00
2023-04-03T09:51:34.499Z,950.00
2023-04-03T09:52:34.525Z,962.00
2023-04-03T09:53:34.604Z,968.00
2023-04-03T09:54:34.619Z,956.00
2023-04-03T09:55:34.663Z,957.00
2023-04-03T09:56:34.608Z,956.00
2023-04-03T09:57:34.757Z,952.00
2023-04-03T09:58:46.728Z,951.00
2023-04-03T09:59:35.674Z,953.00
2023-04-03T10:00:34.642Z,954.00
2023-04-03T10:01:34.809Z,957.00
2023-04-03T10:02:34.686Z,958.00
2023-04-03T10:03:34.774Z,961.00
2023-04-03T10:04:34.703Z,953.00
2023-04-03T10:05:34.632Z,968.00
2023-04-03T10:06:34.606Z,957.00
2023-04-03T10:07:34.627Z,963.00
2023-04-03T10:08:34.629Z,960.00
2023-04-03T10:09:34.590Z,961.00
2023-04-03T10:10:34.609Z,963.00
2023-04-03T10:11:34.675Z,957.00
2023-04-03T10:12:34.591Z,955.00
2023-04-03T10:13:41.967Z,958.00
2023-04-03T10:14:35.609Z,959.00
2023-04-03T10:15:34.581Z,959.00
2023-04-03T10:16:34.653Z,960.00
2023-04-03T10:17:34.565Z,953.00
2023-04-03T10:18:34.572Z,965.00
2023-04-03T10:19:34.603Z,960.00
2023-04-03T10:20:34.589Z,955.00
2023-04-03T10:21:34.512Z,966.00
2023-04-03T10:22:34.575Z,959.00
2023-04-03T10:23:34.494Z,960.00
2023-04-03T10:24:34.491Z,968.00
2023-04-03T10:25:34.472Z,963.00
2023-04-03T10:26:34.481Z,971.00
2023-04-03T10:27:34.576Z,967.00
2023-04-03T10:28:34.460Z,953.00
2023-04-03T10:29:34.442Z,953.00
2023-04-03T10:30:34.556Z,960.00
2023-04-03T10:31:34.465Z,947.00
2023-04-03T10:32:34.501Z,953.00
2023-04-03T10:33:34.495Z,962.00
2023-04-03T10:34:34.484Z,963.00
2023-04-03T10:35:34.590Z,960.00
2023-04-03T10:36:34.578Z,953.00
2023-04-03T10:37:34.609Z,946.00
2023-04-03T10:38:34.592Z,960.00
2023-04-03T10:39:34.637Z,973.00
2023-04-03T10:40:34.643Z,967.00
2023-04-03T10:41:34.645Z,954.00
2023-04-03T10:42:34.742Z,955.00
2023-04-03T10:43:34.765Z,956.00
2023-04-03T10:44:34.729Z,965.00
2023-04-03T10:45:34.740Z,963.00
2023-04-03T10:46:34.885Z,963.00
2023-04-03T10:47:36.047Z,957.00
2023-04-03T10:48:34.858Z,965.00
2023-04-03T10:49:34.865Z,963.00
2023-04-03T10:50:34.940Z,957.00
2023-04-03T10:51:34.882Z,961.00
2023-04-03T10:52:34.885Z,972.00
2023-04-03T10:53:34.903Z,951.00
2023-04-03T10:54:34.879Z,955.00
2023-04-03T10:55:34.880Z,960.00
2023-04-03T10:56:34.916Z,954.00
2023-04-03T10:57:35.026Z,955.00
2023-04-03T10:58:34.946Z,959.00
2023-04-03T10:59:35.023Z,958.00
2023-04-03T11:00:34.942Z,965.00
2023-04-03T11:01:34.961Z,956.00
2023-04-03T11:02:35.033Z,963.00
2023-04-03T11:03:34.948Z,957.00
2023-04-03T11:04:34.914Z,959.00
2023-04-03T11:05:34.922Z,965.00
2023-04-03T11:06:34.884Z,965.00
2023-04-03T11:07:34.886Z,957.00
2023-04-03T11:08:34.938Z,949.00
2023-04-03T11:09:34.897Z,952.00
2023-04-03T11:10:34.857Z,953.00
2023-04-03T11:11:34.915Z,950.00
2023-04-03T11:12:34.894Z,963.00
2023-04-03T11:13:34.933Z,955.00
2023-04-03T11:14:34.941Z,957.00
2023-04-03T11:15:34.993Z,961.00
2023-04-03T11:16:43.366Z,962.00
2023-04-03T11:17:36.065Z,962.00
2023-04-03T11:18:34.972Z,963.00
2023-04-03T11:19:34.920Z,964.00
2023-04-03T11:20:34.953Z,962.00
2023-04-03T11:21:34.930Z,973.00
2023-04-03T11:22:34.952Z,966.00
2023-04-03T11:23:45.804Z,975.00
2023-04-03T11:24:35.960Z,976.00
2023-04-03T11:25:34.961Z,976.00
2023-04-03T11:26:34.900Z,977.00
2023-04-03T11:27:34.859Z,976.00
2023-04-03T11:28:34.896Z,971.00
2023-04-03T11:29:35.930Z,969.00
2023-04-03T11:30:34.841Z,974.00
2023-04-03T11:31:34.986Z,974.00
2023-04-03T11:32:34.865Z,961.00
2023-04-03T11:33:34.889Z,967.00
2023-04-03T11:34:34.823Z,983.00
2023-04-03T11:35:34.866Z,969.00
2023-04-03T11:36:36.261Z,963.00
2023-04-03T11:37:34.783Z,974.00
2023-04-03T11:38:34.798Z,967.00
2023-04-03T11:39:34.854Z,965.00
2023-04-03T11:40:34.771Z,962.00
2023-04-03T11:41:34.823Z,966.00
2023-04-03T11:42:34.775Z,965.00
2023-04-03T11:43:34.788Z,972.00
2023-04-03T11:44:34.810Z,969.00
2023-04-03T11:45:34.750Z,966.00
2023-04-03T11:46:34.845Z,952.00
2023-04-03T11:47:34.867Z,955.00
2023-04-03T11:48:34.809Z,955.00
2023-04-03T11:49:34.764Z,955.00
2023-04-03T11:50:34.729Z,966.00
2023-04-03T11:51:34.721Z,952.00
2023-04-03T11:52:34.691Z,955.00
2023-04-03T11:53:34.691Z,954.00
2023-04-03T11:54:38.604Z,962.00
2023-04-03T11:55:35.973Z,963.00
2023-04-03T11:56:34.684Z,964.00
2023-04-03T11:57:34.687Z,963.00
2023-04-03T11:58:34.686Z,967.00
2023-04-03T11:59:34.662Z,968.00
2023-04-03T12:00:34.638Z,978.00
2023-04-03T12:01:34.634Z,955.00
2023-04-03T12:02:44.279Z,959.00
2023-04-03T12:03:35.757Z,960.00
2023-04-03T12:04:34.752Z,960.00
2023-04-03T12:05:34.718Z,960.00
2023-04-03T12:06:34.636Z,963.00
2023-04-03T12:07:34.614Z,956.00
2023-04-03T12:08:34.604Z,958.00
2023-04-03T12:09:34.596Z,965.00
2023-04-03T12:10:34.599Z,952.00
2023-04-03T12:11:34.613Z,949.00
2023-04-03T12:12:34.572Z,958.00
2023-04-03T12:13:34.541Z,946.00
2023-04-03T12:14:34.596Z,962.00
2023-04-03T12:15:34.530Z,946.00
2023-04-03T12:16:34.555Z,952.00
2023-04-03T12:17:34.566Z,950.00
2023-04-03T12:18:34.514Z,948.00
2023-04-03T12:19:42.333Z,955.00
2023-04-03T12:20:35.508Z,955.00
2023-04-03T12:21:34.508Z,956.00
2023-04-03T12:22:34.540Z,955.00
2023-04-03T12:23:34.495Z,955.00
2023-04-03T12:24:34.482Z,958.00
2023-04-03T12:25:34.531Z,943.00
2023-04-03T12:26:45.580Z,938.00
2023-04-03T12:27:35.501Z,939.00
2023-04-03T12:28:34.438Z,940.00